Time;durP1;ratioP1;P1;durP2;ratioP2;P2;SDS_P1;SDS_P2;PMS_P1;PMS_P2;Temp;Humidity;BMP_temperature;BMP_pressure;BME280_temperature;BME280_humidity;BME280_pressure;Samples;Min_cycle;Max_cycle;Signal;HPM_P1;HPM_P2
2023/06/15 00:01:14;;;;;;;5.85;3.25;;;14.70;99.90;;;;;;5043697;28;20151;-83
2023/06/15 00:03:42;;;;;;;5.68;3.53;;;14.50;99.90;;;;;;5039527;28;20048;-82
2023/06/15 00:06:08;;;;;;;7.38;3.47;;;14.60;99.90;;;;;;5043660;28;20530;-83
2023/06/15 00:08:34;;;;;;;5.40;3.35;;;14.60;99.90;;;;;;5055534;28;20041;-82
2023/06/15 00:11:00;;;;;;;5.18;3.40;;;14.50;99.90;;;;;;5038899;28;20116;-83
2023/06/15 00:13:26;;;;;;;5.20;3.78;;;14.40;99.90;;;;;;5039360;28;20649;-83
2023/06/15 00:15:52;;;;;;;7.57;4.07;;;14.50;99.90;;;;;;5055638;28;20157;-83
2023/06/15 00:18:18;;;;;;;6.70;4.10;;;14.60;99.90;;;;;;5046950;28;20404;-83
2023/06/15 00:20:44;;;;;;;5.80;4.03;;;14.60;99.90;;;;;;5041439;28;20068;-82
2023/06/15 00:23:10;;;;;;;5.85;3.90;;;14.60;99.90;;;;;;5040823;28;20044;-83
2023/06/15 00:25:36;;;;;;;7.15;3.85;;;14.70;99.90;;;;;;5052991;28;20043;-83
2023/06/15 00:28:02;;;;;;;6.38;4.10;;;14.70;99.90;;;;;;5044615;28;20041;-83
2023/06/15 00:30:28;;;;;;;4.47;3.90;;;14.40;99.90;;;;;;5040451;28;20467;-83
2023/06/15 00:32:53;;;;;;;5.78;4.07;;;14.50;99.90;;;;;;5049812;28;20048;-83
2023/06/15 00:35:19;;;;;;;5.55;3.85;;;14.50;99.90;;;;;;5054418;28;20151;-83
2023/06/15 00:37:45;;;;;;;6.45;3.55;;;14.30;99.90;;;;;;5054240;28;20043;-83
2023/06/15 00:40:11;;;;;;;6.88;4.40;;;14.10;99.90;;;;;;5053866;28;20052;-83
2023/06/15 00:42:37;;;;;;;7.72;4.18;;;14.20;99.90;;;;;;5039688;28;20048;-83
2023/06/15 00:45:05;;;;;;;6.90;3.90;;;14.20;99.90;;;;;;5056835;28;20102;-83
2023/06/15 00:47:33;;;;;;;8.60;4.65;;;14.10;99.90;;;;;;5039377;28;20047;-83
2023/06/15 00:49:59;;;;;;;5.18;3.38;;;14.00;99.90;;;;;;5042197;28;20090;-83
2023/06/15 00:52:25;;;;;;;5.70;3.75;;;13.70;99.90;;;;;;5043242;28;20048;-83
2023/06/15 00:54:51;;;;;;;7.32;4.35;;;13.70;99.90;;;;;;5040400;28;20079;-83
2023/06/15 00:57:18;;;;;;;8.30;4.50;;;13.80;99.90;;;;;;5047646;28;20071;-83
2023/06/15 00:59:44;;;;;;;6.40;4.22;;;13.80;99.90;;;;;;5050247;28;20040;-83
2023/06/15 01:02:12;;;;;;;9.95;4.55;;;13.90;99.90;;;;;;5041332;28;20381;-83
2023/06/15 01:04:39;;;;;;;6.70;4.53;;;13.90;99.90;;;;;;5042933;28;20501;-83
2023/06/15 01:07:10;;;;;;;6.40;4.40;;;13.80;99.90;;;;;;5050264;28;20260;-83
2023/06/15 01:09:39;;;;;;;7.82;4.57;;;13.70;99.90;;;;;;5039083;28;20075;-83
2023/06/15 01:12:07;;;;;;;6.20;4.22;;;13.70;99.90;;;;;;5041421;28;20454;-82
2023/06/15 01:14:33;;;;;;;5.85;4.18;;;13.60;99.90;;;;;;5047184;28;20487;-83
2023/06/15 01:17:10;;;;;;;5.22;4.03;;;13.50;99.90;;;;;;5053765;28;20041;-83
2023/06/15 01:20:07;;;;;;;8.77;4.50;;;13.60;99.90;;;;;;5052058;28;20044;-82
2023/06/15 01:23:10;;;;;;;8.43;4.45;;;13.70;99.90;;;;;;5050376;28;20044;-83
2023/06/15 01:25:53;;;;;;;6.50;3.95;;;13.60;99.90;;;;;;5050818;28;20528;-82
2023/06/15 01:28:21;;;;;;;6.88;4.10;;;13.60;99.90;;;;;;5056416;28;20404;-83
2023/06/15 01:31:04;;;;;;;6.47;4.57;;;13.70;99.90;;;;;;5038551;28;20389;-83
2023/06/15 01:33:31;;;;;;;7.63;4.85;;;13.70;99.90;;;;;;5030324;28;20066;-83
2023/06/15 01:35:57;;;;;;;7.15;4.35;;;13.70;99.90;;;;;;5040891;28;20396;-83
2023/06/15 01:38:25;;;;;;;7.97;4.60;;;13.70;99.90;;;;;;5041250;28;20215;-83
2023/06/15 01:40:53;;;;;;;6.93;4.65;;;13.70;99.90;;;;;;5048631;28;20040;-82
2023/06/15 01:43:22;;;;;;;6.88;4.95;;;13.70;99.90;;;;;;5051927;28;20048;-83
2023/06/15 01:45:49;;;;;;;5.35;4.10;;;13.60;99.90;;;;;;5042188;28;20067;-82
2023/06/15 01:48:15;;;;;;;7.50;5.05;;;13.70;99.90;;;;;;5033505;28;20056;-83
2023/06/15 01:50:42;;;;;;;9.43;5.57;;;13.60;99.90;;;;;;5039760;28;20464;-83
2023/06/15 01:53:08;;;;;;;5.88;4.85;;;13.70;99.90;;;;;;5036216;28;20048;-83
2023/06/15 01:55:34;;;;;;;10.48;5.22;;;13.60;99.90;;;;;;5044067;28;20036;-82
2023/06/15 01:58:00;;;;;;;8.38;5.10;;;13.50;99.90;;;;;;5035272;28;20098;-82
2023/06/15 02:00:29;;;;;;;6.93;5.55;;;13.50;99.90;;;;;;5040328;28;20513;-83
2023/06/15 02:02:55;;;;;;;7.03;4.82;;;13.50;99.90;;;;;;5044780;28;20046;-83
2023/06/15 02:05:21;;;;;;;8.57;5.00;;;13.50;99.90;;;;;;5058331;28;20048;-83
2023/06/15 02:07:47;;;;;;;7.00;5.47;;;13.40;99.90;;;;;;5040015;28;20487;-83
2023/06/15 02:10:12;;;;;;;10.20;5.40;;;13.40;99.90;;;;;;5048452;28;20040;-83
2023/06/15 02:12:38;;;;;;;8.05;4.93;;;13.40;99.90;;;;;;5035575;28;20101;-82
2023/06/15 02:15:04;;;;;;;8.32;5.32;;;13.40;99.90;;;;;;5039524;28;20159;-83
2023/06/15 02:17:38;;;;;;;7.93;5.07;;;13.30;99.90;;;;;;5046823;28;20045;-83
2023/06/15 02:20:05;;;;;;;8.50;5.70;;;13.20;99.90;;;;;;5052177;28;20041;-82
2023/06/15 02:22:31;;;;;;;9.20;5.20;;;13.10;99.90;;;;;;5040400;28;20045;-82
2023/06/15 02:24:56;;;;;;;8.00;5.57;;;13.00;99.90;;;;;;5036073;28;20543;-83
2023/06/15 02:27:22;;;;;;;7.43;5.25;;;13.00;99.90;;;;;;5042858;28;20417;-83
2023/06/15 02:29:48;;;;;;;13.88;5.50;;;13.00;99.90;;;;;;5050322;28;20068;-82
2023/06/15 02:32:37;;;;;;;8.00;5.95;;;13.10;99.90;;;;;;5051985;28;20069;-82
2023/06/15 02:35:05;;;;;;;10.52;6.07;;;13.10;99.90;;;;;;5037509;28;20048;-82
2023/06/15 02:37:30;;;;;;;8.15;6.38;;;13.10;99.90;;;;;;5043675;28;20492;-83
2023/06/15 02:39:56;;;;;;;12.70;6.47;;;13.10;99.90;;;;;;5037869;28;20140;-83
2023/06/15 02:42:22;;;;;;;8.27;6.07;;;13.10;99.90;;;;;;5056006;28;20167;-82
2023/06/15 02:44:47;;;;;;;12.73;6.47;;;13.10;99.90;;;;;;5036364;28;20143;-82
2023/06/15 02:47:13;;;;;;;7.72;5.25;;;13.10;99.90;;;;;;5047833;28;20487;-83
2023/06/15 02:49:39;;;;;;;8.45;5.88;;;13.00;99.90;;;;;;5041670;28;20056;-83
2023/06/15 02:52:05;;;;;;;9.85;6.03;;;13.00;99.90;;;;;;5050850;28;20116;-82
2023/06/15 02:54:31;;;;;;;10.75;6.35;;;13.00;99.90;;;;;;5051707;28;20121;-83
2023/06/15 02:56:57;;;;;;;9.57;6.32;;;13.00;99.90;;;;;;5036785;28;20551;-83
2023/06/15 02:59:25;;;;;;;10.52;7.05;;;13.00;99.90;;;;;;5040949;28;20033;-82
2023/06/15 03:01:54;;;;;;;9.15;6.47;;;13.10;99.90;;;;;;5043080;28;20404;-83
2023/06/15 03:04:22;;;;;;;9.68;7.10;;;13.00;99.90;;;;;;5050178;28;20209;-82
2023/06/15 03:06:50;;;;;;;11.00;6.75;;;13.00;99.90;;;;;;5040909;28;20129;-83
2023/06/15 03:09:17;;;;;;;6.93;6.07;;;13.00;99.90;;;;;;5038485;28;20036;-83
2023/06/15 03:11:43;;;;;;;9.65;5.43;;;13.00;99.90;;;;;;5050145;28;20083;-82
2023/06/15 03:14:12;;;;;;;8.07;5.43;;;13.00;99.90;;;;;;5039146;28;20037;-83
2023/06/15 03:16:46;;;;;;;9.25;5.25;;;12.90;99.90;;;;;;5057523;28;20510;-83
2023/06/15 03:19:16;;;;;;;8.25;5.00;;;13.00;99.90;;;;;;5038802;28;20029;-82
2023/06/15 03:21:43;;;;;;;12.77;6.25;;;12.90;99.90;;;;;;5041432;28;20566;-82
2023/06/15 03:24:09;;;;;;;8.88;5.85;;;12.90;99.90;;;;;;5034579;28;20622;-83
2023/06/15 03:26:38;;;;;;;10.27;5.95;;;12.90;99.90;;;;;;5032345;28;20039;-82
2023/06/15 03:29:05;;;;;;;8.23;5.50;;;12.90;99.90;;;;;;5049865;28;20373;-82
2023/06/15 03:31:33;;;;;;;7.55;5.88;;;12.90;99.90;;;;;;5037347;28;20048;-82
2023/06/15 03:34:00;;;;;;;8.80;5.70;;;13.00;99.90;;;;;;5042058;28;20044;-82
2023/06/15 03:36:29;;;;;;;9.55;6.03;;;13.00;99.90;;;;;;5039837;28;20411;-82
2023/06/15 03:38:57;;;;;;;11.35;6.20;;;13.00;99.90;;;;;;5041601;28;20040;-82
2023/06/15 03:41:23;;;;;;;9.82;6.05;;;13.10;99.90;;;;;;5046345;28;20123;-82
2023/06/15 03:43:49;;;;;;;12.27;6.55;;;13.10;99.90;;;;;;5042216;28;20587;-82
2023/06/15 03:46:14;;;;;;;12.70;6.40;;;13.20;99.90;;;;;;5057789;28;20048;-82
2023/06/15 03:48:41;;;;;;;12.98;7.20;;;13.20;99.90;;;;;;5032025;28;20194;-83
2023/06/15 03:51:06;;;;;;;7.75;6.63;;;13.30;99.90;;;;;;5043768;28;20574;-82
2023/06/15 03:53:32;;;;;;;8.07;6.10;;;13.30;99.90;;;;;;5051890;28;20041;-82
2023/06/15 03:55:57;;;;;;;9.23;6.93;;;13.30;99.90;;;;;;5036246;28;20073;-83
2023/06/15 03:58:24;;;;;;;9.15;6.93;;;13.40;99.90;;;;;;5051051;28;20153;-82
2023/06/15 04:00:52;;;;;;;9.70;6.57;;;13.50;99.90;;;;;;5038742;28;20102;-83
2023/06/15 04:03:18;;;;;;;10.27;6.65;;;13.60;99.90;;;;;;5045737;28;20665;-82
2023/06/15 04:05:44;;;;;;;11.60;6.55;;;13.60;99.90;;;;;;5062876;28;20155;-82
2023/06/15 04:08:10;;;;;;;11.23;6.80;;;13.70;99.90;;;;;;5046973;28;20105;-83
2023/06/15 04:10:36;;;;;;;9.68;6.10;;;13.80;99.90;;;;;;5065169;28;20379;-82
2023/06/15 04:13:05;;;;;;;9.48;6.45;;;13.80;99.90;;;;;;5050641;28;20051;-82
2023/06/15 04:15:31;;;;;;;11.43;6.28;;;13.90;99.90;;;;;;5059599;28;20119;-82
2023/06/15 04:18:00;;;;;;;8.80;5.70;;;14.10;99.90;;;;;;5061510;28;20454;-83
2023/06/15 04:20:30;;;;;;;10.13;5.72;;;14.10;99.90;;;;;;5047060;28;20029;-82
2023/06/15 04:22:59;;;;;;;9.40;6.18;;;14.10;99.90;;;;;;5078000;28;20503;-83
2023/06/15 04:25:27;;;;;;;8.48;6.20;;;14.10;99.90;;;;;;5046479;28;20335;-82
2023/06/15 04:27:53;;;;;;;8.40;6.68;;;14.30;99.90;;;;;;5046995;28;20051;-82
2023/06/15 04:30:24;;;;;;;13.93;6.70;;;14.30;99.90;;;;;;5066416;28;20040;-82
2023/06/15 04:32:57;;;;;;;8.93;6.15;;;14.40;99.90;;;;;;5045618;28;20171;-82
2023/06/15 04:35:28;;;;;;;8.30;5.88;;;14.50;99.90;;;;;;5071864;28;20049;-82
2023/06/15 04:37:58;;;;;;;10.65;6.15;;;14.60;99.90;;;;;;5040905;28;20378;-82
2023/06/15 04:40:25;;;;;;;8.82;5.75;;;14.70;99.90;;;;;;5055481;28;20135;-82
2023/06/15 04:42:52;;;;;;;8.73;5.93;;;14.80;99.90;;;;;;5046209;28;20146;-82
2023/06/15 04:45:17;;;;;;;13.40;6.22;;;14.80;99.90;;;;;;5044346;28;20047;-83
2023/06/15 04:47:43;;;;;;;8.15;6.15;;;15.00;99.90;;;;;;5047437;28;20040;-82
2023/06/15 04:50:13;;;;;;;6.63;5.70;;;15.10;99.90;;;;;;5059579;28;20054;-82
2023/06/15 04:52:40;;;;;;;8.05;5.80;;;15.20;99.90;;;;;;5057153;28;20062;-82
2023/06/15 04:55:06;;;;;;;9.23;5.80;;;15.30;99.90;;;;;;5056435;28;20323;-82
2023/06/15 04:57:32;;;;;;;7.47;5.90;;;15.40;99.90;;;;;;5044220;28;20116;-83
2023/06/15 04:59:57;;;;;;;11.95;6.28;;;15.60;99.90;;;;;;5046429;28;20128;-82
2023/06/15 05:02:23;;;;;;;8.85;5.85;;;15.70;99.90;;;;;;5078574;28;20582;-82
2023/06/15 05:04:52;;;;;;;8.88;6.03;;;15.80;99.90;;;;;;5073158;28;20040;-83
2023/06/15 05:07:18;;;;;;;6.38;5.70;;;15.90;99.90;;;;;;5058751;28;20453;-82
2023/06/15 05:09:44;;;;;;;9.52;5.82;;;16.10;99.90;;;;;;5054643;28;20732;-83
2023/06/15 05:12:09;;;;;;;8.10;5.80;;;16.20;99.90;;;;;;5057747;28;20035;-82
2023/06/15 05:14:35;;;;;;;7.28;5.28;;;16.40;99.90;;;;;;5054040;28;20547;-83
2023/06/15 05:17:03;;;;;;;7.93;5.32;;;16.40;99.90;;;;;;5044171;28;20051;-83
2023/06/15 05:19:30;;;;;;;8.68;5.45;;;16.60;99.90;;;;;;5039358;28;20032;-82
2023/06/15 05:22:01;;;;;;;6.32;5.05;;;16.70;99.90;;;;;;5040266;28;20063;-82
2023/06/15 05:24:27;;;;;;;9.65;5.18;;;16.70;99.90;;;;;;5076746;28;20415;-82
2023/06/15 05:26:53;;;;;;;6.65;4.90;;;16.90;99.90;;;;;;5052828;28;20041;-82
2023/06/15 05:29:19;;;;;;;5.63;4.80;;;17.10;99.90;;;;;;5056892;28;20513;-82
2023/06/15 05:31:48;;;;;;;5.30;4.47;;;17.10;99.90;;;;;;5040463;28;20527;-82
2023/06/15 05:34:14;;;;;;;6.00;4.72;;;17.20;99.90;;;;;;5053301;28;20044;-83
2023/06/15 05:36:39;;;;;;;7.35;4.65;;;17.30;99.90;;;;;;5056619;28;20057;-83
2023/06/15 05:39:06;;;;;;;7.95;4.45;;;17.40;99.90;;;;;;5034675;28;20056;-83
2023/06/15 05:41:32;;;;;;;7.45;4.38;;;17.40;99.90;;;;;;5053413;28;20415;-82
2023/06/15 05:43:59;;;;;;;7.22;4.65;;;17.60;99.90;;;;;;5038297;28;20079;-82
2023/06/15 05:46:28;;;;;;;7.20;4.43;;;17.70;99.90;;;;;;5054630;28;20427;-82
2023/06/15 05:48:53;;;;;;;8.75;4.53;;;17.80;99.90;;;;;;5040203;28;20474;-82
2023/06/15 05:51:19;;;;;;;6.68;4.18;;;17.80;99.90;;;;;;5036700;28;20073;-82
2023/06/15 05:53:45;;;;;;;5.57;4.07;;;17.90;99.90;;;;;;5049282;28;20124;-82
2023/06/15 05:56:10;;;;;;;8.02;4.47;;;18.00;99.90;;;;;;5038866;28;20047;-83
2023/06/15 05:58:37;;;;;;;8.73;4.18;;;18.10;99.90;;;;;;5039050;28;20544;-82
2023/06/15 06:01:03;;;;;;;4.15;3.55;;;18.20;99.90;;;;;;5058912;28;20378;-82
2023/06/15 06:03:31;;;;;;;6.47;4.18;;;18.30;99.90;;;;;;5057147;28;20050;-82
2023/06/15 06:05:57;;;;;;;5.90;3.50;;;18.40;99.90;;;;;;5059262;28;20944;-82
2023/06/15 06:08:23;;;;;;;7.47;3.22;;;18.40;99.90;;;;;;5040596;28;20124;-82
2023/06/15 06:10:49;;;;;;;5.68;2.97;;;18.60;99.90;;;;;;5047288;28;20123;-82
2023/06/15 06:13:15;;;;;;;3.70;3.00;;;18.60;99.90;;;;;;5032656;28;20036;-82
2023/06/15 06:15:41;;;;;;;5.50;3.28;;;18.70;38.30;;;;;;5054062;28;20041;-82
2023/06/15 06:18:06;;;;;;;4.45;2.97;;;18.80;1.00;;;;;;5047130;28;20033;-82
2023/06/15 06:20:32;;;;;;;4.93;3.30;;;18.80;1.00;;;;;;5041339;28;20036;-82
2023/06/15 06:22:58;;;;;;;4.65;2.70;;;19.00;99.90;;;;;;5038832;28;20048;-82
2023/06/15 06:25:23;;;;;;;4.03;3.20;;;19.10;99.90;;;;;;5049353;28;20219;-82
2023/06/15 06:27:49;;;;;;;6.65;2.97;;;19.20;1.00;;;;;;5037143;28;20135;-82
2023/06/15 06:30:15;;;;;;;4.85;2.80;;;19.20;1.00;;;;;;5038211;28;20118;-82
2023/06/15 06:32:40;;;;;;;4.43;2.90;;;19.30;99.90;;;;;;5041815;28;20040;-82
2023/06/15 06:35:06;;;;;;;5.43;2.90;;;19.40;43.10;;;;;;5047397;28;20064;-82
2023/06/15 06:37:32;;;;;;;8.05;3.17;;;19.50;1.00;;;;;;5040428;28;20078;-82
2023/06/15 06:39:58;;;;;;;8.25;3.15;;;19.60;99.90;;;;;;5049093;28;20056;-82
2023/06/15 06:42:24;;;;;;;5.00;2.70;;;19.50;99.90;;;;;;5048264;28;20448;-82
2023/06/15 06:44:49;;;;;;;5.40;2.80;;;19.70;1.00;;;;;;5048212;28;20452;-82
2023/06/15 06:47:15;;;;;;;6.93;3.30;;;19.80;99.90;;;;;;5057049;28;20094;-82
2023/06/15 06:49:41;;;;;;;5.63;3.00;;;19.90;1.00;;;;;;5047403;28;20173;-82
2023/06/15 06:52:07;;;;;;;4.53;3.10;;;19.90;1.00;;;;;;5046954;28;20029;-82
2023/06/15 06:54:32;;;;;;;5.47;2.83;;;20.00;1.00;;;;;;5041473;28;20032;-82
2023/06/15 06:56:58;;;;;;;5.47;2.92;;;20.10;99.90;;;;;;5050160;28;20048;-82
2023/06/15 06:59:24;;;;;;;5.05;2.70;;;20.20;99.90;;;;;;5035820;28;20120;-82
2023/06/15 07:01:50;;;;;;;6.22;2.85;;;20.20;99.90;;;;;;5053125;28;20196;-83
2023/06/15 07:04:15;;;;;;;4.28;2.60;;;20.30;1.00;;;;;;5049587;28;20036;-82
2023/06/15 07:06:44;;;;;;;3.60;2.65;;;20.30;99.90;;;;;;5050430;28;20112;-82
2023/06/15 07:09:10;;;;;;;3.42;2.45;;;20.40;99.90;;;;;;5033423;28;20404;-82
2023/06/15 07:11:37;;;;;;;6.38;2.90;;;20.30;99.90;;;;;;5034624;28;20043;-82
2023/06/15 07:14:03;;;;;;;3.65;2.50;;;20.50;99.90;;;;;;5053942;28;20041;-82
2023/06/15 07:16:30;;;;;;;8.35;2.70;;;20.50;99.90;;;;;;5031635;28;20460;-82
2023/06/15 07:18:56;;;;;;;4.35;2.58;;;20.50;99.90;;;;;;5056947;28;20035;-82
2023/06/15 07:21:23;;;;;;;8.27;3.00;;;20.70;99.90;;;;;;5047633;28;20117;-82
2023/06/15 07:23:48;;;;;;;4.78;2.67;;;20.80;99.90;;;;;;5041518;28;20479;-82
2023/06/15 07:26:14;;;;;;;3.90;2.80;;;20.80;99.90;;;;;;5043294;28;20040;-82
2023/06/15 07:28:40;;;;;;;6.63;2.92;;;20.90;99.90;;;;;;5035039;28;20048;-82
2023/06/15 07:31:05;;;;;;;5.13;2.88;;;21.00;99.90;;;;;;5051248;28;20040;-82
2023/06/15 07:33:31;;;;;;;3.40;2.88;;;21.10;99.90;;;;;;5046861;28;20075;-82
2023/06/15 07:35:57;;;;;;;5.00;2.97;;;20.90;99.90;;;;;;5044428;28;20033;-82
2023/06/15 07:38:22;;;;;;;7.68;2.75;;;21.10;99.90;;;;;;5033250;28;20454;-82
2023/06/15 07:40:48;;;;;;;5.47;3.28;;;21.20;99.90;;;;;;5039410;28;20524;-82
2023/06/15 07:43:14;;;;;;;6.28;2.90;;;21.10;99.90;;;;;;5040206;28;20045;-82
2023/06/15 07:45:41;;;;;;;5.78;3.25;;;21.30;99.90;;;;;;5037364;28;20120;-82
2023/06/15 07:48:07;;;;;;;9.27;2.78;;;21.60;99.90;;;;;;5051718;28;20044;-82
2023/06/15 07:50:33;;;;;;;5.30;3.35;;;21.70;99.90;;;;;;5050445;28;20399;-82
2023/06/15 07:52:58;;;;;;;4.82;2.70;;;21.70;99.90;;;;;;5041755;28;20527;-82
2023/06/15 07:55:24;;;;;;;7.25;2.83;;;21.60;92.90;;;;;;5035746;28;20385;-82
2023/06/15 07:57:50;;;;;;;5.55;2.80;;;21.70;98.40;;;;;;5050285;28;20098;-82
2023/06/15 08:00:16;;;;;;;6.00;2.88;;;21.60;4.10;;;;;;5041019;28;20032;-82
2023/06/15 08:02:42;;;;;;;6.00;2.70;;;21.70;1.00;;;;;;5051359;28;20131;-81
2023/06/15 08:05:08;;;;;;;4.50;2.92;;;21.80;1.00;;;;;;5041335;28;20051;-82
2023/06/15 08:07:34;;;;;;;4.43;2.90;;;21.90;1.00;;;;;;5034225;28;20197;-82
2023/06/15 08:09:59;;;;;;;3.50;2.72;;;22.00;1.00;;;;;;5044180;28;20040;-81
2023/06/15 08:12:26;;;;;;;7.50;3.10;;;22.10;1.00;;;;;;5043672;28;20041;-82
2023/06/15 08:14:51;;;;;;;3.75;2.55;;;22.20;1.00;;;;;;5054598;28;20041;-82
2023/06/15 08:17:17;;;;;;;5.07;3.00;;;22.20;1.00;;;;;;5043509;28;20331;-82
2023/06/15 08:19:43;;;;;;;4.18;2.95;;;22.10;99.90;;;;;;5042162;28;20060;-82
2023/06/15 08:22:08;;;;;;;5.18;3.15;;;22.40;99.90;;;;;;5043220;28;20037;-82
2023/06/15 08:24:34;;;;;;;3.58;2.70;;;22.60;1.00;;;;;;5069022;28;20064;-82
2023/06/15 08:27:00;;;;;;;5.30;2.75;;;22.60;99.90;;;;;;5037277;28;20033;-82
2023/06/15 08:29:26;;;;;;;4.80;2.70;;;22.80;99.90;;;;;;5043073;28;20281;-82
2023/06/15 08:31:51;;;;;;;4.05;3.17;;;22.60;99.90;;;;;;5053846;28;20128;-82
2023/06/15 08:34:17;;;;;;;7.97;3.03;;;22.90;99.90;;;;;;5048086;28;20091;-82
2023/06/15 08:36:43;;;;;;;7.00;3.13;;;23.00;99.90;;;;;;5032356;28;20029;-82
2023/06/15 08:39:09;;;;;;;9.13;3.17;;;23.30;99.90;;;;;;5039995;28;20491;-82
2023/06/15 08:41:39;;;;;;;4.50;2.88;;;23.40;99.90;;;;;;5035065;28;20052;-82
2023/06/15 08:44:05;;;;;;;5.10;3.20;;;23.40;99.90;;;;;;5037457;28;20373;-82
2023/06/15 08:46:31;;;;;;;5.15;3.17;;;23.10;99.90;;;;;;5041882;28;20393;-82
2023/06/15 08:48:58;;;;;;;5.60;2.80;;;23.30;99.90;;;;;;5050986;28;20032;-82
2023/06/15 08:51:25;;;;;;;4.55;2.97;;;23.10;99.90;;;;;;5043219;28;20044;-82
2023/06/15 08:53:56;;;;;;;3.58;2.72;;;23.30;99.90;;;;;;5036758;28;20105;-82
2023/06/15 08:56:22;;;;;;;4.57;2.83;;;23.40;99.90;;;;;;5037682;28;20201;-82
2023/06/15 08:58:50;;;;;;;5.82;3.00;;;23.80;99.90;;;;;;5039764;28;20622;-82
2023/06/15 09:01:23;;;;;;;5.47;2.80;;;23.40;99.90;;;;;;5052880;28;20043;-82
2023/06/15 09:03:54;;;;;;;4.15;2.70;;;23.50;99.90;;;;;;5032950;28;20449;-82
2023/06/15 09:06:21;;;;;;;5.00;2.60;;;23.80;99.90;;;;;;5039689;28;20887;-82
2023/06/15 09:08:48;;;;;;;6.60;2.70;;;23.90;99.90;;;;;;5039000;28;20048;-82
2023/06/15 09:11:14;;;;;;;4.13;2.75;;;24.00;99.90;;;;;;5050424;28;20040;-82
2023/06/15 09:13:41;;;;;;;4.25;2.53;;;24.00;99.90;;;;;;5051267;28;20068;-82
2023/06/15 09:16:08;;;;;;;4.55;2.50;;;24.10;99.90;;;;;;5042691;28;20044;-82
2023/06/15 09:18:47;;;;;;;6.57;3.00;;;24.50;99.90;;;;;;5041499;28;20032;-82
2023/06/15 09:21:14;;;;;;;6.50;2.38;;;24.40;99.90;;;;;;5042847;28;20040;-82
2023/06/15 09:23:45;;;;;;;4.43;2.72;;;24.70;99.90;;;;;;5034673;28;20037;-82
2023/06/15 09:26:27;;;;;;;8.68;2.83;;;24.70;99.90;;;;;;5033691;28;20072;-82
2023/06/15 09:28:57;;;;;;;6.25;2.63;;;24.80;99.90;;;;;;5046914;28;20569;-82
2023/06/15 09:31:36;;;;;;;6.78;3.00;;;24.50;99.90;;;;;;5047668;28;20037;-82
2023/06/15 09:34:06;;;;;;;4.25;2.88;;;24.60;99.90;;;;;;5042737;28;20040;-82
2023/06/15 09:36:39;;;;;;;4.60;2.90;;;24.80;99.90;;;;;;5042439;28;20486;-82
2023/06/15 09:39:09;;;;;;;5.65;2.80;;;24.50;99.90;;;;;;5036567;28;20064;-82
2023/06/15 09:41:35;;;;;;;3.83;2.80;;;24.90;99.90;;;;;;5085003;28;20076;-82
2023/06/15 09:44:05;;;;;;;4.22;2.53;;;24.60;99.90;;;;;;5049650;28;20041;-82
2023/06/15 09:46:31;;;;;;;4.97;2.50;;;24.50;99.90;;;;;;5041023;28;20638;-82
2023/06/15 09:48:57;;;;;;;5.63;2.63;;;25.00;99.90;;;;;;5034450;28;20076;-82
2023/06/15 09:51:28;;;;;;;5.18;2.60;;;24.90;99.90;;;;;;5037898;28;20086;-82
2023/06/15 09:53:57;;;;;;;2.60;2.30;;;24.80;99.90;;;;;;5055935;28;20079;-82
2023/06/15 09:56:23;;;;;;;3.60;2.53;;;24.90;99.90;;;;;;5082218;28;20387;-81
2023/06/15 09:58:49;;;;;;;3.65;2.50;;;25.20;99.90;;;;;;5052694;28;20110;-82
2023/06/15 10:01:18;;;;;;;4.88;2.90;;;25.60;99.90;;;;;;5040195;28;20112;-82
2023/06/15 10:03:52;;;;;;;5.30;2.95;;;25.30;99.90;;;;;;5037246;28;20044;-82
2023/06/15 10:06:20;;;;;;;4.50;2.60;;;25.50;99.90;;;;;;5053801;28;20122;-82
2023/06/15 10:08:51;;;;;;;4.80;2.80;;;25.80;99.90;;;;;;5034773;28;20143;-82
2023/06/15 10:11:19;;;;;;;4.50;2.65;;;25.20;99.90;;;;;;5040109;28;20032;-82
2023/06/15 10:14:28;;;;;;;2.60;2.30;;;25.70;99.90;;;;;;5039846;28;20032;-82
2023/06/15 10:16:59;;;;;;;3.53;2.42;;;25.90;99.90;;;;;;4985378;28;20045;-82
2023/06/15 10:19:28;;;;;;;4.07;2.75;;;25.90;99.90;;;;;;5002347;28;20060;-81
2023/06/15 10:21:55;;;;;;;3.08;2.20;;;26.00;99.90;;;;;;5011842;28;20051;-81
2023/06/15 10:24:24;;;;;;;3.78;2.28;;;26.00;99.90;;;;;;5047726;28;20510;-82
2023/06/15 10:26:50;;;;;;;2.83;2.42;;;26.00;99.90;;;;;;5035774;28;20031;-82
2023/06/15 10:29:25;;;;;;;5.53;2.67;;;25.80;99.90;;;;;;5052051;28;20116;-82
2023/06/15 10:32:12;;;;;;;3.85;2.40;;;26.10;99.90;;;;;;5053886;28;20037;-82
2023/06/15 10:35:04;;;;;;;5.93;2.40;;;26.20;99.90;;;;;;5041932;28;20175;-82
2023/06/15 10:37:36;;;;;;;6.10;2.28;;;26.20;99.90;;;;;;5050010;28;20043;-82
2023/06/15 10:40:13;;;;;;;5.47;2.53;;;26.20;99.90;;;;;;5030502;28;20057;-82
2023/06/15 10:42:48;;;;;;;5.45;2.80;;;26.50;99.90;;;;;;5049491;28;20247;-82
2023/06/15 10:45:32;;;;;;;3.40;2.70;;;26.80;99.90;;;;;;5054077;28;20085;-82
2023/06/15 10:47:59;;;;;;;4.32;2.63;;;26.70;99.90;;;;;;5055633;28;20322;-82
2023/06/15 10:50:43;;;;;;;3.10;2.35;;;27.00;99.90;;;;;;5047707;28;20446;-82
2023/06/15 10:53:25;;;;;;;4.70;2.83;;;27.10;99.90;;;;;;5051337;28;20075;-81
2023/06/15 10:55:56;;;;;;;3.75;2.30;;;26.60;99.90;;;;;;5049384;28;20041;-82
2023/06/15 10:58:22;;;;;;;7.35;2.50;;;26.30;99.90;;;;;;5043549;28;20527;-81
2023/06/15 11:01:07;;;;;;;3.50;2.65;;;27.00;99.90;;;;;;5038454;28;20582;-82
2023/06/15 11:03:33;;;;;;;3.53;2.30;;;27.30;99.90;;;;;;5036662;28;20114;-82
2023/06/15 11:06:08;;;;;;;5.53;2.60;;;27.00;99.90;;;;;;5038934;28;20131;-82
2023/06/15 11:08:48;;;;;;;5.75;2.70;;;27.40;99.90;;;;;;5052024;28;20075;-81
2023/06/15 11:11:15;;;;;;;3.35;2.35;;;27.50;99.90;;;;;;5055942;28;20040;-82
2023/06/15 11:13:55;;;;;;;5.25;2.65;;;26.80;99.90;;;;;;5043988;28;20036;-82
2023/06/15 11:16:25;;;;;;;2.83;2.47;;;27.20;99.90;;;;;;5044921;28;20500;-81
2023/06/15 11:19:10;;;;;;;6.50;2.80;;;27.30;99.90;;;;;;5038594;28;20310;-82
2023/06/15 11:21:40;;;;;;;;;;;27.10;99.90;;;;;;5047712;28;20283;-81
2023/06/15 11:24:06;;;;;;;4.95;2.50;;;27.00;99.90;;;;;;5067380;28;20146;-82
2023/06/15 11:26:34;;;;;;;4.22;2.67;;;26.80;99.90;;;;;;5052480;28;20131;-82
2023/06/15 11:29:01;;;;;;;3.53;2.50;;;27.60;99.90;;;;;;5031594;28;20072;-82
2023/06/15 11:31:30;;;;;;;5.63;2.63;;;27.60;99.90;;;;;;5042918;28;20591;-82
2023/06/15 11:33:56;;;;;;;6.28;2.80;;;27.80;99.90;;;;;;5039907;28;20082;-82
2023/06/15 11:36:22;;;;;;;4.20;2.60;;;28.10;99.90;;;;;;5043785;28;20558;-82
2023/06/15 11:38:48;;;;;;;5.53;2.63;;;27.80;99.90;;;;;;5034349;28;20908;-82
2023/06/15 11:41:13;;;;;;;4.72;2.50;;;27.70;99.90;;;;;;5044923;28;20072;-82
2023/06/15 11:43:41;;;;;;;4.65;2.85;;;27.10;99.90;;;;;;5040437;28;20477;-81
2023/06/15 11:46:15;;;;;;;4.05;2.80;;;26.60;99.90;;;;;;5043204;28;20052;-82
2023/06/15 11:48:43;;;;;;;6.23;2.70;;;27.20;99.90;;;;;;5042493;28;20048;-82
2023/06/15 11:51:09;;;;;;;3.92;2.53;;;27.10;99.90;;;;;;5043889;28;20098;-82
2023/06/15 11:53:38;;;;;;;4.30;2.50;;;27.20;99.90;;;;;;5041288;28;20052;-82
2023/06/15 11:56:12;;;;;;;5.40;2.58;;;27.70;99.90;;;;;;5036604;28;20048;-82
2023/06/15 11:58:42;;;;;;;2.90;2.47;;;27.90;99.90;;;;;;5043947;28;20195;-82
2023/06/15 12:01:12;;;;;;;5.03;2.38;;;28.20;99.90;;;;;;5043273;28;20495;-82
2023/06/15 12:03:40;;;;;;;3.25;2.50;;;27.50;99.90;;;;;;5053459;28;20085;-82
2023/06/15 12:06:06;;;;;;;3.72;2.42;;;27.00;99.90;;;;;;5054250;28;20049;-82
2023/06/15 12:08:32;;;;;;;3.55;2.30;;;27.30;99.90;;;;;;5052391;28;20525;-82
2023/06/15 12:11:02;;;;;;;5.13;2.60;;;26.90;94.70;;;;;;5052128;28;20082;-82
2023/06/15 12:13:28;;;;;;;3.80;2.40;;;27.60;99.90;;;;;;5038624;28;20472;-82
2023/06/15 12:15:54;;;;;;;5.13;2.47;;;27.50;99.90;;;;;;5057981;28;20047;-81
2023/06/15 12:18:19;;;;;;;5.05;2.50;;;27.30;95.40;;;;;;5057758;28;20036;-81
2023/06/15 12:20:47;;;;;;;4.53;2.88;;;26.90;91.60;;;;;;5042632;28;20036;-82
2023/06/15 12:23:33;;;;;;;3.63;2.47;;;27.20;95.80;;;;;;5067782;28;20033;-82
2023/06/15 12:26:00;;;;;;;2.97;2.42;;;28.10;99.90;;;;;;5050151;28;20052;-82
2023/06/15 12:28:26;;;;;;;5.40;2.38;;;28.30;99.90;;;;;;5052630;28;20503;-82
2023/06/15 12:30:59;;;;;;;4.43;2.67;;;28.70;99.90;;;;;;5043447;28;20036;-82
2023/06/15 12:33:38;;;;;;;3.20;2.47;;;29.00;99.90;;;;;;5039015;28;20041;-82
2023/06/15 12:36:09;;;;;;;3.83;2.20;;;29.40;99.90;;;;;;5058304;28;20421;-81
2023/06/15 12:38:36;;;;;;;5.40;2.58;;;29.80;99.90;;;;;;5059550;28;20076;-82
2023/06/15 12:41:01;;;;;;;6.43;2.70;;;29.50;99.90;;;;;;5039294;28;20044;-82
2023/06/15 12:43:27;;;;;;;5.18;2.60;;;29.90;99.90;;;;;;5040148;28;20036;-82
2023/06/15 12:45:54;;;;;;;5.05;2.65;;;29.70;99.90;;;;;;5040306;28;20475;-82
2023/06/15 12:48:26;;;;;;;5.82;2.70;;;28.50;80.80;;;;;;5050836;28;20045;-82
2023/06/15 12:50:52;;;;;;;5.72;2.42;;;28.20;71.30;;;;;;5049805;28;20040;-82
2023/06/15 12:53:18;;;;;;;2.90;2.45;;;28.50;78.50;;;;;;5036404;28;20091;-82